Thedford, Canada
Current Conditions -  °F | °C
As of 4:00 PM on Monday 24 Nov 2014 (Local Time) from CYZR Reporting Station
Overcast Overcast  
Wind Chill: 38°   Ceiling: 3000
Heat Index: 46°   Visibility: 9mi
Dew Point: 36°   Wind: 25mph
Humidity: 66%   Direction: 240°WSW
Pressure: 29.28"   Gusts: 45mph
Location:  43.17°N, 81.85°W
Report Text: CYZR 242100Z AUTO 24022G39KT 9SM OVC030 08/02 A2928 RMK PRESRR SLP917 DENSITY ALT 600FT
Loading
Personal Weather Stations






























Interactive Weather Map New forecast layout! Learn more

10-Day Weather Forecast

Advertisements
Track Severe Weather on mobile